Time;durP1;ratioP1;P1;durP2;ratioP2;P2;SDS_P1;SDS_P2;PMS_P1;PMS_P2;Temp;Humidity;BMP_temperature;BMP_pressure;BME280_temperature;BME280_humidity;BME280_pressure;Samples;Min_cycle;Max_cycle;Signal;HPM_P1;HPM_P2
2023/09/27 00:02:00;;;;;;;6.25;2.75;;;;;;;7.19;69.45;97893.50;6318814;28;20044;-70
2023/09/27 00:05:06;;;;;;;3.47;2.50;;;;;;;7.13;69.74;97888.47;6318582;28;20261;-69
2023/09/27 00:08:11;;;;;;;3.88;2.53;;;;;;;7.13;69.85;97888.47;6319826;28;20121;-70
2023/09/27 00:11:15;;;;;;;5.75;2.95;;;;;;;7.09;69.86;97881.66;6320706;28;20044;-70
2023/09/27 00:14:16;;;;;;;6.50;2.95;;;;;;;7.07;69.64;97886.91;6319936;28;20739;-69
2023/09/27 00:17:20;;;;;;;5.80;2.38;;;;;;;6.82;69.65;97852.03;6321320;28;20059;-69
2023/09/27 00:20:26;;;;;;;;;;;;;;;6.96;69.69;97883.81;6319874;28;20044;-69
2023/09/27 00:23:27;;;;;;;3.83;2.28;;;;;;;6.83;69.54;97878.16;6320123;28;20014;-69
2023/09/27 00:26:34;;;;;;;4.43;2.72;;;;;;;6.88;69.93;97877.97;6318569;28;20047;-69
2023/09/27 00:29:39;;;;;;;5.35;3.25;;;;;;;6.89;69.96;97880.56;6318534;28;20048;-69
2023/09/27 00:32:44;;;;;;;4.28;2.92;;;;;;;6.92;70.13;97879.59;6317565;28;20048;-69
2023/09/27 00:35:49;;;;;;;5.45;2.78;;;;;;;6.97;70.20;97882.94;6323140;28;20378;-69
2023/09/27 00:38:50;;;;;;;5.93;2.92;;;;;;;6.96;70.49;97881.19;6323111;28;20051;-69
2023/09/27 00:41:51;;;;;;;5.88;2.83;;;;;;;7.01;70.16;97887.13;6322383;28;20509;-69
2023/09/27 00:44:55;;;;;;;5.88;2.88;;;;;;;6.97;69.86;97883.78;6323366;28;20048;-69
2023/09/27 00:48:03;;;;;;;7.78;3.15;;;;;;;6.91;70.03;97893.59;6323054;28;20051;-69
2023/09/27 00:51:07;;;;;;;6.10;2.80;;;;;;;6.83;69.97;97874.69;6322636;28;20540;-68
2023/09/27 00:54:09;;;;;;;;;;;;;;;6.75;70.22;97883.63;6322313;28;20044;-69
2023/09/27 00:57:10;;;;;;;6.00;2.72;;;;;;;6.72;70.51;97894.22;6322785;28;19920;-71
2023/09/27 01:00:14;;;;;;;5.88;2.67;;;;;;;6.70;70.80;97885.56;6322532;28;20094;-71
2023/09/27 01:03:18;;;;;;;6.22;2.97;;;;;;;6.70;70.50;97872.47;6322585;28;20455;-70
2023/09/27 01:06:26;;;;;;;6.60;3.90;;;;;;;6.64;70.61;97874.44;6304499;28;20048;-70
2023/09/27 01:09:31;;;;;;;5.82;3.40;;;;;;;6.66;70.75;97878.72;6321713;28;20048;-71
2023/09/27 01:12:39;;;;;;;8.43;3.65;;;;;;;6.63;70.78;97884.06;6322285;28;20489;-70
2023/09/27 01:15:41;;;;;;;6.70;3.40;;;;;;;6.58;70.93;97888.56;6322092;28;20048;-70
2023/09/27 01:18:42;;;;;;;7.20;3.78;;;;;;;6.58;71.12;97887.72;6321712;28;20056;-68
2023/09/27 01:21:46;;;;;;;7.78;3.75;;;;;;;6.52;70.88;97881.78;6320447;28;20071;-71
2023/09/27 01:24:53;;;;;;;4.60;4.00;;;;;;;6.55;71.15;97891.28;6322049;28;20035;-69
2023/09/27 01:27:55;;;;;;;6.53;4.00;;;;;;;6.51;71.02;97885.31;6321393;28;20413;-69
2023/09/27 01:30:58;;;;;;;7.60;4.30;;;;;;;6.48;71.14;97889.75;6321647;28;20078;-69
2023/09/27 01:34:02;;;;;;;;;;;;;;;6.42;71.29;97889.97;6322290;28;20607;-69
2023/09/27 01:37:11;;;;;;;7.97;3.88;;;;;;;6.46;71.29;97891.59;6321783;28;19920;-71
2023/09/27 01:40:18;;;;;;;11.98;4.75;;;;;;;6.45;70.80;97882.88;6321849;28;20040;-70
2023/09/27 01:43:19;;;;;;;15.10;5.75;;;;;;;6.40;70.66;97881.34;6321410;28;20044;-70
2023/09/27 01:46:21;;;;;;;10.23;6.13;;;;;;;6.40;70.86;97897.88;6320441;28;20076;-71
2023/09/27 01:49:27;;;;;;;16.38;6.28;;;;;;;6.35;71.13;97878.00;6321348;28;20044;-70
2023/09/27 01:52:33;;;;;;;11.65;5.22;;;;;;;6.42;71.39;97895.19;6320998;28;20425;-71
2023/09/27 01:55:34;;;;;;;15.80;5.53;;;;;;;6.42;71.03;97890.81;6321324;28;20032;-70
2023/09/27 01:58:38;;;;;;;10.15;5.68;;;;;;;6.43;70.97;97891.69;6320820;28;20039;-71
2023/09/27 02:01:40;;;;;;;13.23;5.65;;;;;;;6.41;71.29;97903.97;6320868;28;20138;-71
2023/09/27 02:04:47;;;;;;;12.65;5.15;;;;;;;6.39;71.31;97895.28;6320797;28;20052;-71
2023/09/27 02:07:48;;;;;;;13.38;4.50;;;;;;;6.42;71.17;97895.19;6320494;28;20124;-71
2023/09/27 02:10:51;;;;;;;10.80;5.03;;;;;;;6.47;71.28;97898.53;6320506;28;20058;-71
2023/09/27 02:13:56;;;;;;;9.23;4.70;;;;;;;6.49;70.69;97900.19;6320448;28;20421;-70
2023/09/27 02:17:00;;;;;;;11.13;4.95;;;;;;;6.56;71.05;97902.59;6319855;28;20534;-70
2023/09/27 02:20:07;;;;;;;7.78;4.18;;;;;;;6.64;70.68;97898.84;6320337;28;20049;-70
2023/09/27 02:23:09;;;;;;;8.95;4.05;;;;;;;6.67;70.65;97906.56;6320101;28;20051;-71
2023/09/27 02:26:13;;;;;;;10.15;4.78;;;;;;;6.69;70.42;97904.78;6319914;28;20426;-70
2023/09/27 02:29:15;;;;;;;14.05;5.43;;;;;;;6.74;70.32;97917.72;6320024;28;20063;-71
2023/09/27 02:32:19;;;;;;;10.55;5.03;;;;;;;6.79;70.15;97914.94;6319576;28;20052;-71
2023/09/27 02:35:27;;;;;;;11.05;5.00;;;;;;;6.86;69.59;97905.97;6320321;28;20036;-71
2023/09/27 02:38:33;;;;;;;11.00;5.45;;;;;;;6.87;69.54;97902.44;6319718;28;20448;-70
2023/09/27 02:41:37;;;;;;;9.57;5.07;;;;;;;6.82;69.08;97888.66;6318993;28;20047;-71
2023/09/27 02:44:39;;;;;;;9.35;5.35;;;;;;;6.98;68.84;97905.56;6317941;28;20050;-70
2023/09/27 02:47:46;;;;;;;10.85;4.97;;;;;;;7.05;68.28;97907.06;6319988;28;20035;-70
2023/09/27 02:50:52;;;;;;;11.18;4.80;;;;;;;7.13;68.00;97899.81;6318931;28;20079;-70
2023/09/27 02:53:53;;;;;;;10.20;4.97;;;;;;;7.19;68.12;97909.22;6318119;28;20044;-71
2023/09/27 02:57:02;;;;;;;10.32;5.90;;;;;;;7.20;68.05;97898.69;6319651;28;20044;-70
2023/09/27 03:00:06;;;;;;;12.48;5.97;;;;;;;7.33;67.70;97906.09;6318816;28;20055;-70
2023/09/27 03:03:13;;;;;;;12.27;6.30;;;;;;;7.37;67.63;97897.25;6319429;28;20051;-70
2023/09/27 03:06:15;;;;;;;15.57;5.97;;;;;;;7.48;67.24;97902.94;6319386;28;20047;-70
2023/09/27 03:09:19;;;;;;;9.30;5.63;;;;;;;7.59;67.53;97913.03;6318231;28;20059;-70
2023/09/27 03:12:28;;;;;;;17.00;7.57;;;;;;;7.68;67.38;97912.69;6319322;28;20512;-71
2023/09/27 03:15:34;;;;;;;9.18;5.75;;;;;;;7.79;67.04;97902.69;6319441;28;20039;-71
2023/09/27 03:18:40;;;;;;;15.95;5.68;;;;;;;7.91;67.22;97917.09;6319102;28;20052;-71
2023/09/27 03:21:41;;;;;;;12.57;6.00;;;;;;;8.09;67.14;97902.41;6317079;28;20048;-70
2023/09/27 03:24:44;;;;;;;11.25;6.00;;;;;;;8.22;66.99;97902.81;6319094;28;20044;-70
2023/09/27 03:27:49;;;;;;;16.10;6.18;;;;;;;8.35;67.01;97903.16;6318537;28;20052;-70
2023/09/27 03:30:54;;;;;;;7.57;5.32;;;;;;;8.47;66.83;97906.22;6318721;28;20088;-70
2023/09/27 03:33:55;;;;;;;12.90;5.38;;;;;;;8.60;66.60;97901.31;6318771;28;20048;-70
2023/09/27 03:37:00;;;;;;;17.52;6.05;;;;;;;8.74;66.55;97893.72;6318358;28;20040;-71
2023/09/27 03:40:07;;;;;;;14.90;5.30;;;;;;;8.88;66.45;97887.06;6318954;28;20138;-71
2023/09/27 03:43:12;;;;;;;22.77;5.68;;;;;;;9.04;65.87;97889.91;6319176;28;20074;-70
2023/09/27 03:46:19;;;;;;;14.77;5.50;;;;;;;9.22;65.64;97891.72;6300527;28;20409;-70
2023/09/27 03:49:21;;;;;;;20.95;5.82;;;;;;;9.37;65.32;97891.09;6318642;28;20139;-70
2023/09/27 03:52:28;;;;;;;20.08;6.50;;;;;;;9.55;65.13;97888.56;6318586;28;20048;-71
2023/09/27 03:55:30;;;;;;;15.75;5.95;;;;;;;9.75;64.93;97891.13;6318317;28;20135;-71
2023/09/27 03:58:33;;;;;;;15.15;5.82;;;;;;;9.89;64.60;97893.16;6318702;28;20545;-71
2023/09/27 04:01:36;;;;;;;7.40;4.07;;;;;;;10.11;64.45;97898.28;6318841;28;20031;-71
2023/09/27 04:04:38;;;;;;;;;;;;;;;10.30;64.30;97899.16;6318907;28;20056;-70
2023/09/27 04:07:41;;;;;;;19.10;8.13;;;;;;;10.46;64.09;97893.13;6319716;28;19920;-72
2023/09/27 04:10:46;;;;;;;13.60;5.10;;;;;;;10.66;63.78;97885.13;6323459;28;20050;-70
2023/09/27 04:13:48;;;;;;;7.75;4.13;;;;;;;10.85;63.38;97889.50;6321698;28;20048;-70
2023/09/27 04:16:59;;;;;;;7.05;4.60;;;;;;;11.02;63.21;97886.88;6323531;28;20039;-72
2023/09/27 04:20:17;;;;;;;8.07;3.78;;;;;;;11.15;63.01;97882.69;6323461;28;20052;-71
2023/09/27 04:23:19;;;;;;;9.70;3.97;;;;;;;11.32;62.83;97883.59;6323296;28;20418;-71
2023/09/27 04:26:23;;;;;;;8.35;4.35;;;;;;;11.43;62.53;97875.97;6322816;28;20113;-70
2023/09/27 04:29:27;;;;;;;8.07;3.50;;;;;;;11.60;62.26;97889.13;6322207;28;20126;-70
2023/09/27 04:32:34;;;;;;;8.55;4.65;;;;;;;11.75;61.70;97891.88;6323146;28;20044;-71
2023/09/27 04:35:39;;;;;;;9.40;4.85;;;;;;;11.89;61.46;97881.50;6323239;28;20043;-70
2023/09/27 04:38:44;;;;;;;12.10;4.85;;;;;;;12.05;61.16;97884.97;6322538;28;20112;-70
2023/09/27 04:41:46;;;;;;;12.05;4.72;;;;;;;12.23;60.77;97879.63;6322801;28;20085;-70
2023/09/27 04:44:50;;;;;;;15.70;8.07;;;;;;;12.39;60.33;97872.56;6322382;28;20048;-71
2023/09/27 04:47:52;;;;;;;13.68;5.22;;;;;;;12.57;59.96;97876.81;6322855;28;20044;-70
2023/09/27 04:50:59;;;;;;;39.85;20.30;;;;;;;12.76;59.32;97881.03;6322954;28;20506;-70
2023/09/27 04:54:03;;;;;;;13.95;6.60;;;;;;;12.92;58.90;97876.56;6322759;28;20048;-70
2023/09/27 04:57:08;;;;;;;9.10;4.65;;;;;;;13.03;58.22;97876.78;6322606;28;20059;-69
2023/09/27 05:00:18;;;;;;;7.43;4.10;;;;;;;13.20;57.58;97880.22;6322575;28;20134;-71
2023/09/27 05:03:22;;;;;;;10.35;3.53;;;;;;;13.43;57.02;97876.22;6322716;28;20565;-70
2023/09/27 05:06:24;;;;;;;10.73;3.72;;;;;;;13.64;56.05;97868.78;6322414;28;20115;-71
2023/09/27 05:09:29;;;;;;;5.40;3.08;;;;;;;13.88;55.36;97866.44;6322155;28;20044;-69
2023/09/27 05:12:35;;;;;;;7.00;3.47;;;;;;;14.17;54.74;97876.97;6322214;28;20043;-69
2023/09/27 05:15:36;;;;;;;7.95;3.70;;;;;;;14.43;54.09;97870.00;6321386;28;20059;-72
2023/09/27 05:18:43;;;;;;;8.77;4.18;;;;;;;14.63;53.13;97852.84;6321509;28;20352;-71
2023/09/27 05:21:45;;;;;;;8.35;4.05;;;;;;;14.97;52.47;97867.34;6321181;28;20043;-70
2023/09/27 05:24:47;;;;;;;11.85;4.10;;;;;;;15.29;51.57;97865.22;6321485;28;20040;-70
2023/09/27 05:27:49;;;;;;;8.00;4.57;;;;;;;15.61;50.45;97867.44;6321523;28;20105;-70
2023/09/27 05:30:52;;;;;;;12.60;4.60;;;;;;;18.00;46.08;97870.19;6321648;28;20051;-70
2023/09/27 05:33:55;;;;;;;13.30;4.60;;;;;;;22.57;38.03;97867.25;6321310;28;20040;-68
2023/09/27 05:36:57;;;;;;;;;;;;;;;27.01;33.51;97871.78;6322036;28;20142;-68
2023/09/27 05:39:59;;;;;;;9.18;4.65;;;;;;;30.19;27.85;97872.28;6321014;28;20045;-68
2023/09/27 05:43:02;;;;;;;5.85;3.40;;;;;;;32.79;24.35;97886.22;6321588;28;20036;-70
2023/09/27 05:46:03;;;;;;;7.88;3.30;;;;;;;34.09;21.91;97869.38;6321840;28;20046;-68
2023/09/27 05:49:11;;;;;;;5.15;2.38;;;;;;;35.24;20.48;97872.19;6320678;28;20044;-70
2023/09/27 05:52:15;;;;;;;5.47;2.20;;;;;;;36.22;18.71;97871.88;6320745;28;20052;-69
2023/09/27 05:55:18;;;;;;;5.25;2.03;;;;;;;37.53;17.89;97856.41;6321352;28;20105;-69
2023/09/27 05:58:23;;;;;;;2.50;1.80;;;;;;;39.09;16.51;97856.38;6321035;28;20056;-69
2023/09/27 06:01:25;;;;;;;5.13;2.58;;;;;;;40.77;15.10;97858.78;6319802;28;20125;-68
2023/09/27 06:04:32;;;;;;;9.23;2.40;;;;;;;41.34;13.71;97854.22;6321102;28;20524;-69
2023/09/27 06:07:36;;;;;;;5.95;2.65;;;;;;;42.08;13.82;97847.31;6321145;28;20048;-67
2023/09/27 06:10:44;;;;;;;6.30;2.50;;;;;;;42.74;12.80;97841.59;6320822;28;20485;-69
2023/09/27 06:13:50;;;;;;;4.45;1.95;;;;;;;42.58;12.81;97837.25;6320882;28;20526;-67
2023/09/27 06:16:54;;;;;;;3.97;1.38;;;;;;;42.15;12.51;97836.78;6320764;28;20569;-69
2023/09/27 06:19:55;;;;;;;;;;;;;;;43.57;11.81;97840.00;6321070;28;20039;-67
2023/09/27 06:23:03;;;;;;;3.90;2.00;;;;;;;42.74;12.50;97829.69;6320591;28;19920;-69
2023/09/27 06:26:09;;;;;;;6.65;1.55;;;;;;;42.87;11.58;97823.56;6319688;28;20229;-68
2023/09/27 06:29:10;;;;;;;1.80;0.98;;;;;;;42.75;11.84;97831.34;6319907;28;20044;-68
2023/09/27 06:32:17;;;;;;;2.65;1.05;;;;;;;42.30;11.54;97819.34;6320557;28;20097;-69
2023/09/27 06:35:24;;;;;;;2.75;1.00;;;;;;;41.86;11.90;97820.78;6320388;28;20126;-69
2023/09/27 06:38:29;;;;;;;3.25;1.30;;;;;;;42.64;11.27;97813.13;6320366;28;20043;-68
2023/09/27 06:41:34;;;;;;;1.92;1.35;;;;;;;42.46;11.74;97811.81;6320115;28;20048;-68
2023/09/27 06:44:40;;;;;;;1.70;0.90;;;;;;;42.20;11.33;97811.06;6319491;28;20083;-68
2023/09/27 06:47:46;;;;;;;2.47;1.23;;;;;;;42.81;11.74;97811.69;6319805;28;20122;-68
2023/09/27 06:50:56;;;;;;;2.10;1.00;;;;;;;40.64;12.48;97804.91;6319510;28;20043;-67
2023/09/27 06:54:02;;;;;;;1.67;1.25;;;;;;;37.66;14.52;97789.34;6319629;28;20051;-69
2023/09/27 06:57:04;;;;;;;2.83;1.48;;;;;;;35.11;16.50;97779.38;6319564;28;20536;-68
2023/09/27 07:00:18;;;;;;;2.88;1.35;;;;;;;32.85;18.07;97770.84;6319842;28;20040;-69
2023/09/27 07:03:24;;;;;;;1.58;1.05;;;;;;;34.49;16.87;97776.03;6319770;28;20052;-68
2023/09/27 07:06:28;;;;;;;7.10;3.55;;;;;;;35.56;15.94;97776.16;6319626;28;20048;-68
2023/09/27 07:09:33;;;;;;;3.25;1.73;;;;;;;35.24;16.48;97764.66;6319483;28;20493;-69
2023/09/27 07:12:39;;;;;;;3.53;1.50;;;;;;;37.89;14.54;97777.31;6319560;28;20051;-68
2023/09/27 07:15:40;;;;;;;1.90;1.27;;;;;;;39.37;13.45;97774.66;6319271;28;20040;-68
2023/09/27 07:18:49;;;;;;;1.98;1.63;;;;;;;39.51;13.06;97765.66;6319406;28;20040;-69
2023/09/27 07:21:52;;;;;;;3.15;1.88;;;;;;;41.03;12.39;97774.91;6319056;28;20044;-69
2023/09/27 07:24:57;;;;;;;6.00;1.88;;;;;;;42.24;11.74;97774.28;6319244;28;20043;-69
2023/09/27 07:28:03;;;;;;;4.03;2.00;;;;;;;43.58;11.44;97783.44;6318698;28;20106;-69
2023/09/27 07:31:06;;;;;;;6.75;1.83;;;;;;;44.74;10.57;97778.84;6318374;28;20162;-70
2023/09/27 07:34:13;;;;;;;3.47;1.73;;;;;;;44.43;10.21;97776.44;6319291;28;20040;-68
2023/09/27 07:37:14;;;;;;;2.17;1.48;;;;;;;40.53;12.15;97765.41;6318250;28;20051;-68
2023/09/27 07:40:21;;;;;;;1.90;1.25;;;;;;;36.04;15.03;97744.91;6318960;28;20043;-68
2023/09/27 07:43:25;;;;;;;5.70;2.00;;;;;;;34.52;16.69;97748.25;6316667;28;20598;-69
2023/09/27 07:46:29;;;;;;;5.05;1.88;;;;;;;35.81;15.79;97739.44;6318600;28;20055;-69
2023/09/27 07:49:33;;;;;;;2.58;1.50;;;;;;;38.96;13.79;97746.75;6318473;28;20052;-68
2023/09/27 07:52:37;;;;;;;3.17;1.40;;;;;;;41.49;12.22;97739.06;6318958;28;20663;-69
2023/09/27 07:55:48;;;;;;;3.17;1.27;;;;;;;41.69;11.57;97742.91;6318648;28;20036;-70
2023/09/27 07:58:52;;;;;;;1.60;1.00;;;;;;;40.93;12.08;97736.25;6318156;28;20059;-69
2023/09/27 08:01:56;;;;;;;3.90;1.25;;;;;;;41.01;11.82;97727.44;6318695;28;20528;-69
2023/09/27 08:05:09;;;;;;;1.42;0.98;;;;;;;41.49;11.63;97739.06;6318570;28;20520;-69
2023/09/27 08:08:16;;;;;;;3.40;1.20;;;;;;;39.36;12.89;97728.94;6317913;28;20051;-68
2023/09/27 08:11:20;;;;;;;1.60;0.98;;;;;;;36.53;14.60;97715.22;6318190;28;20249;-69
2023/09/27 08:14:26;;;;;;;1.40;0.90;;;;;;;35.47;15.32;97707.22;6318662;28;20048;-69
2023/09/27 08:17:28;;;;;;;1.52;1.10;;;;;;;34.75;15.99;97699.13;6317406;28;20048;-69
2023/09/27 08:20:29;;;;;;;3.30;1.15;;;;;;;34.41;16.38;97695.19;6316618;28;20062;-69
2023/09/27 08:23:33;;;;;;;2.60;1.10;;;;;;;34.24;16.61;97691.47;6318328;28;20410;-69
2023/09/27 08:26:38;;;;;;;4.65;1.33;;;;;;;34.74;16.44;97685.72;6318704;28;20036;-70
2023/09/27 08:29:42;;;;;;;2.08;1.42;;;;;;;35.36;15.72;97693.50;6318399;28;20059;-70
2023/09/27 08:32:49;;;;;;;1.48;1.20;;;;;;;34.60;16.25;97679.63;6318706;28;20561;-70
2023/09/27 08:35:53;;;;;;;2.17;1.33;;;;;;;34.59;16.18;97667.88;6315807;28;20056;-69
2023/09/27 08:39:01;;;;;;;2.00;1.17;;;;;;;35.56;15.79;97677.59;6318580;28;20151;-70
2023/09/27 08:42:02;;;;;;;2.72;1.20;;;;;;;35.77;15.57;97678.88;6318060;28;20059;-70
2023/09/27 08:45:13;;;;;;;3.27;1.00;;;;;;;35.26;15.99;97673.06;6317610;28;20089;-70
2023/09/27 08:48:22;;;;;;;1.80;0.98;;;;;;;35.44;15.71;97666.66;6317972;28;20531;-69
2023/09/27 08:51:29;;;;;;;2.90;1.42;;;;;;;35.69;15.43;97660.06;6318267;28;20052;-70
2023/09/27 08:54:32;;;;;;;5.15;1.67;;;;;;;35.43;15.36;97655.94;6320092;28;20040;-70
2023/09/27 08:57:37;;;;;;;2.33;1.10;;;;;;;36.12;14.79;97659.63;6322645;28;20048;-69
2023/09/27 09:00:41;;;;;;;3.80;1.27;;;;;;;36.10;14.99;97656.28;6320644;28;20052;-69
2023/09/27 09:03:43;;;;;;;2.80;1.30;;;;;;;34.36;16.27;97645.88;6322725;28;20046;-69
2023/09/27 09:06:47;;;;;;;2.28;1.25;;;;;;;33.71;16.89;97652.81;6322173;28;20131;-68
2023/09/27 09:09:49;;;;;;;1.52;0.90;;;;;;;33.90;16.72;97641.88;6322394;28;20055;-68
2023/09/27 09:12:51;;;;;;;1.60;1.00;;;;;;;34.78;16.04;97643.16;6321888;28;20044;-68
2023/09/27 09:15:57;;;;;;;1.40;0.82;;;;;;;34.98;15.75;97642.81;6322239;28;20044;-69
2023/09/27 09:19:24;;;;;;;1.50;1.00;;;;;;;35.11;15.44;97639.06;6322170;28;20602;-69
2023/09/27 09:22:30;;;;;;;4.78;1.30;;;;;;;34.84;15.90;97637.56;6322212;28;20039;-69
2023/09/27 09:25:42;;;;;;;2.00;0.90;;;;;;;34.53;16.14;97630.47;6321699;28;20089;-69
2023/09/27 09:28:59;;;;;;;4.13;1.30;;;;;;;33.72;16.81;97634.56;6321109;28;20054;-70
2023/09/27 09:32:08;;;;;;;2.83;1.40;;;;;;;32.53;17.72;97626.44;6321907;28;20406;-70
2023/09/27 09:35:27;;;;;;;2.95;1.27;;;;;;;33.32;16.95;97613.16;6321939;28;20123;-70
2023/09/27 09:38:31;;;;;;;2.92;1.00;;;;;;;34.29;16.20;97615.94;6320950;28;20143;-69
2023/09/27 09:41:52;;;;;;;1.60;1.30;;;;;;;35.02;15.95;97617.50;6321131;28;20429;-70
2023/09/27 09:45:08;;;;;;;2.80;1.08;;;;;;;35.71;15.80;97609.47;6321003;28;20130;-69
2023/09/27 09:48:09;;;;;;;2.33;1.25;;;;;;;36.40;14.69;97606.69;6321343;28;20173;-68
2023/09/27 09:51:14;;;;;;;1.67;1.13;;;;;;;36.25;14.06;97613.81;6319694;28;20423;-70
2023/09/27 09:54:28;;;;;;;1.58;0.75;;;;;;;36.19;14.73;97610.16;6321468;28;20450;-71
2023/09/27 09:57:35;;;;;;;2.53;1.35;;;;;;;36.63;13.67;97611.25;6320590;28;20425;-69
2023/09/27 10:00:42;;;;;;;1.85;0.80;;;;;;;36.22;13.87;97606.09;6321100;28;20067;-70
2023/09/27 10:03:52;;;;;;;1.42;0.60;;;;;;;35.56;14.25;97605.59;6321177;28;20051;-69
2023/09/27 10:06:55;;;;;;;1.73;1.00;;;;;;;36.25;13.99;97603.69;6319676;28;20638;-70
2023/09/27 10:09:57;;;;;;;3.40;1.60;;;;;;;36.25;14.14;97597.38;6320435;28;20514;-70
2023/09/27 10:13:01;;;;;;;1.60;1.23;;;;;;;35.40;14.65;97596.19;6320528;28;20442;-70
2023/09/27 10:16:03;;;;;;;3.58;1.27;;;;;;;34.03;15.37;97597.16;6320550;28;20141;-70
2023/09/27 10:19:05;;;;;;;;;;;;;;;34.00;15.52;97593.03;6320722;28;20056;-70
2023/09/27 10:22:19;;;;;;;2.13;1.17;;;;;;;32.55;16.61;97591.63;6320490;28;19926;-70
2023/09/27 10:25:23;;;;;;;3.40;0.85;;;;;;;32.00;17.15;97583.22;6320406;28;20465;-70
2023/09/27 10:28:26;;;;;;;1.45;0.90;;;;;;;30.64;18.62;97589.41;6320378;28;20054;-68
2023/09/27 10:31:32;;;;;;;1.05;0.77;;;;;;;29.48;19.60;97587.66;6320428;28;20056;-70
2023/09/27 10:34:41;;;;;;;1.35;0.90;;;;;;;28.71;20.38;97566.16;6319523;28;20063;-70
2023/09/27 10:37:59;;;;;;;1.92;1.10;;;;;;;28.74;20.09;97571.19;6320097;28;20044;-70
2023/09/27 10:41:03;;;;;;;1.48;1.23;;;;;;;29.01;20.15;97567.59;6320010;28;20070;-70
2023/09/27 10:44:06;;;;;;;1.92;1.08;;;;;;;29.58;19.73;97572.88;6320041;28;20051;-69
2023/09/27 10:47:12;;;;;;;1.30;1.05;;;;;;;28.74;20.09;97554.94;6320162;28;20040;-70
2023/09/27 10:50:27;;;;;;;2.55;1.10;;;;;;;27.63;21.19;97562.59;6319877;28;20518;-70
2023/09/27 10:53:33;;;;;;;0.95;0.70;;;;;;;26.39;22.33;97565.81;6319861;28;20071;-70
2023/09/27 10:56:42;;;;;;;1.73;1.23;;;;;;;25.51;23.58;97556.34;6319922;28;20036;-69
2023/09/27 10:59:49;;;;;;;0.90;0.85;;;;;;;25.11;23.88;97554.66;6319230;28;20139;-71
2023/09/27 11:02:53;;;;;;;1.15;0.82;;;;;;;25.07;24.49;97543.38;6319877;28;20039;-70
2023/09/27 11:06:12;;;;;;;2.92;0.90;;;;;;;25.18;24.21;97547.56;6319803;28;20056;-71
2023/09/27 11:09:20;;;;;;;2.20;1.02;;;;;;;24.87;24.60;97552.88;6319775;28;20055;-70
2023/09/27 11:12:22;;;;;;;2.38;1.10;;;;;;;24.55;25.57;97540.34;6319400;28;20039;-69
2023/09/27 11:15:30;;;;;;;2.00;1.20;;;;;;;24.20;25.87;97545.06;6319633;28;20036;-69
2023/09/27 11:18:43;;;;;;;2.42;1.20;;;;;;;23.92;25.66;97552.59;6319471;28;20685;-69
2023/09/27 11:21:46;;;;;;;2.15;1.40;;;;;;;23.41;26.60;97533.88;6317213;28;20147;-69
2023/09/27 11:24:50;;;;;;;2.53;1.00;;;;;;;23.64;26.40;97536.78;6319210;28;20047;-69
2023/09/27 11:27:55;;;;;;;2.53;1.25;;;;;;;24.56;25.19;97542.84;6318934;28;20055;-70
2023/09/27 11:30:59;;;;;;;2.85;0.90;;;;;;;25.38;24.54;97544.44;6318717;28;20048;-71
2023/09/27 11:34:13;;;;;;;;;;;;;;;25.84;23.85;97545.34;6318845;28;20044;-70
2023/09/27 11:37:17;;;;;;;;;;;;;;;25.71;23.74;97540.53;6319020;28;20347;-69
2023/09/27 11:40:32;;;;;;;2.10;1.55;;;;;;;25.07;24.65;97537.97;6318774;28;19915;-70
2023/09/27 11:43:39;;;;;;;5.10;2.53;;;;;;;24.55;25.54;97538.50;6318076;28;20052;-70
2023/09/27 11:46:43;;;;;;;3.10;2.47;;;;;;;24.43;25.70;97537.19;6318178;28;20052;-70
2023/09/27 11:49:48;;;;;;;2.67;1.40;;;;;;;25.07;25.00;97543.38;6318442;28;20498;-70
2023/09/27 11:52:50;;;;;;;1.60;1.15;;;;;;;25.79;23.98;97536.97;6318243;28;20044;-69
2023/09/27 11:55:55;;;;;;;3.22;0.93;;;;;;;26.34;23.58;97541.25;6317945;28;20128;-69
2023/09/27 11:59:00;;;;;;;1.48;1.02;;;;;;;26.72;22.84;97527.72;6318452;28;20044;-70
2023/09/27 12:02:05;;;;;;;2.58;1.30;;;;;;;26.93;22.69;97528.88;6317846;28;20056;-69
2023/09/27 12:05:09;;;;;;;2.90;1.05;;;;;;;26.93;22.83;97529.69;6318561;28;20052;-69
2023/09/27 12:08:13;;;;;;;2.50;1.02;;;;;;;27.39;22.36;97525.94;6318748;28;20124;-69
2023/09/27 12:11:19;;;;;;;1.83;1.20;;;;;;;27.64;21.94;97527.25;6318306;28;20044;-69
2023/09/27 12:14:21;;;;;;;5.53;1.30;;;;;;;27.76;21.57;97514.91;6318242;28;20052;-69
2023/09/27 12:17:22;;;;;;;4.45;1.42;;;;;;;27.09;22.15;97517.84;6318087;28;20048;-68
2023/09/27 12:20:27;;;;;;;2.55;1.15;;;;;;;26.31;22.62;97520.03;6318579;28;20071;-69
2023/09/27 12:23:31;;;;;;;4.80;2.63;;;;;;;25.33;24.05;97514.50;6316703;28;20372;-69
2023/09/27 12:26:36;;;;;;;11.23;7.28;;;;;;;24.34;24.94;97509.41;6318779;28;20039;-69
2023/09/27 12:29:40;;;;;;;9.07;5.50;;;;;;;23.38;25.93;97518.06;6322414;28;20040;-68
2023/09/27 12:32:44;;;;;;;5.00;3.08;;;;;;;22.41;27.11;97514.78;6323530;28;20094;-70
2023/09/27 12:35:47;;;;;;;5.93;2.63;;;;;;;21.53;27.98;97487.94;6322985;28;20040;-70
2023/09/27 12:38:48;;;;;;;9.17;4.47;;;;;;;21.43;28.44;97516.66;6322537;28;20141;-70
2023/09/27 12:41:52;;;;;;;6.95;4.35;;;;;;;21.12;29.55;97520.59;6322677;28;20051;-70
2023/09/27 12:45:01;;;;;;;6.22;3.33;;;;;;;20.75;30.18;97514.31;6321691;28;20052;-69
2023/09/27 12:48:08;;;;;;;4.63;2.33;;;;;;;20.59;30.69;97514.94;6322779;28;20040;-69
2023/09/27 12:51:11;;;;;;;3.25;2.22;;;;;;;20.36;31.03;97513.59;6322613;28;20170;-70
2023/09/27 12:54:15;;;;;;;6.70;2.88;;;;;;;20.01;31.42;97509.72;6321247;28;20059;-68
2023/09/27 12:57:22;;;;;;;7.40;3.03;;;;;;;19.67;32.01;97507.53;6322527;28;20055;-69
2023/09/27 13:00:30;;;;;;;5.18;3.58;;;;;;;19.41;32.56;97501.00;6322568;28;20093;-70
2023/09/27 13:03:34;;;;;;;5.15;3.65;;;;;;;19.18;33.27;97517.25;6321503;28;20411;-70
2023/09/27 13:06:35;;;;;;;8.68;4.53;;;;;;;18.76;33.63;97514.75;6320071;28;20048;-71
2023/09/27 13:09:39;;;;;;;10.10;5.18;;;;;;;18.27;34.09;97504.84;6320390;28;20052;-69
2023/09/27 13:12:40;;;;;;;9.98;5.10;;;;;;;17.86;34.94;97507.41;6322279;28;20070;-69
2023/09/27 13:15:46;;;;;;;9.65;4.78;;;;;;;17.64;35.47;97507.47;6321906;28;20044;-69
2023/09/27 13:18:51;;;;;;;9.13;5.32;;;;;;;17.35;35.78;97497.41;6322151;28;20048;-69
2023/09/27 13:21:52;;;;;;;7.13;4.55;;;;;;;17.12;36.16;97495.78;6321830;28;20126;-69
2023/09/27 13:24:54;;;;;;;9.68;5.70;;;;;;;16.95;36.36;97505.97;6321590;28;20047;-70
2023/09/27 13:27:57;;;;;;;;;;;;;;;16.73;35.61;97498.00;6322296;28;20055;-69
2023/09/27 13:30:58;;;;;;;19.40;10.82;;;;;;;16.54;36.90;97496.81;6321897;28;20297;-70
2023/09/27 13:34:03;;;;;;;19.80;10.10;;;;;;;16.40;37.38;97489.09;6321555;28;20052;-70
2023/09/27 13:37:07;;;;;;;14.02;7.28;;;;;;;16.21;37.46;97499.47;6321609;28;20040;-69
2023/09/27 13:40:12;;;;;;;14.98;8.02;;;;;;;16.16;37.76;97503.34;6321333;28;20044;-69
2023/09/27 13:43:16;;;;;;;22.45;9.40;;;;;;;15.97;38.19;97497.75;6321363;28;20044;-69
2023/09/27 13:46:20;;;;;;;12.50;7.55;;;;;;;15.79;38.71;97509.75;6320778;28;20133;-69
2023/09/27 13:49:23;;;;;;;13.95;7.47;;;;;;;15.54;38.70;97500.09;6321446;28;20043;-69
2023/09/27 13:52:27;;;;;;;15.60;7.28;;;;;;;15.43;39.00;97503.59;6321397;28;20501;-71
2023/09/27 13:55:30;;;;;;;23.30;9.13;;;;;;;15.25;39.41;97490.72;6321578;28;20418;-69
2023/09/27 13:58:34;;;;;;;29.95;10.57;;;;;;;15.21;39.67;97507.81;6321106;28;20431;-70
2023/09/27 14:01:40;;;;;;;18.70;9.33;;;;;;;15.10;39.93;97512.22;6320312;28;20063;-72
2023/09/27 14:04:47;;;;;;;18.42;9.02;;;;;;;14.95;40.13;97501.78;6320315;28;20050;-70
2023/09/27 14:07:49;;;;;;;19.17;9.90;;;;;;;14.83;40.50;97500.00;6320739;28;20417;-70
2023/09/27 14:10:56;;;;;;;24.80;12.23;;;;;;;14.72;40.98;97492.84;6320768;28;20040;-68
2023/09/27 14:14:00;;;;;;;48.22;26.45;;;;;;;14.73;41.12;97499.81;6320689;28;20043;-70
2023/09/27 14:17:02;;;;;;;56.70;32.78;;;;;;;14.67;41.39;97500.25;6319598;28;20055;-69
2023/09/27 14:20:05;;;;;;;47.57;27.43;;;;;;;14.61;41.67;97506.00;6320478;28;20048;-70
2023/09/27 14:23:09;;;;;;;42.53;25.27;;;;;;;14.57;42.02;97500.06;6320407;28;20135;-70
2023/09/27 14:26:12;;;;;;;50.75;26.90;;;;;;;14.58;42.36;97500.94;6320141;28;20185;-69
2023/09/27 14:29:14;;;;;;;57.60;30.38;;;;;;;14.46;43.18;97504.38;6320425;28;20142;-70
2023/09/27 14:32:18;;;;;;;46.45;24.30;;;;;;;14.40;43.50;97508.31;6320283;28;20032;-70
2023/09/27 14:35:20;;;;;;;33.03;16.38;;;;;;;14.36;43.01;97497.09;6320611;28;20048;-70